Česky Dansk Deutsch English Español Suomi Français Magyar Italiano Nederlands norsk Polski Português svenska Türkçe

 

Het Weer

Dortmund / Wickede (Duitsland)

19:50, 19 augustus 2016 (GMT)

NWNNE
WE
SWSSE
Home            
Dortmund / Wickede Essen Duesseldorf Guetersloh Muenster / Osnabrueck Paderborn / Lippstadt Koeln / Bonn Monchengladbach Rheine-Bentlage Hopsten Hessen Kalkar Twenthe Noervenich Laarbruch Niederrhein Nordhorn Brueggen Kassel / Calden Fritzlar Geilenkirchen Aachen / Merzbruck Diepholz

Om een weerknop op uw website of weblog te plaatsen, copieer onderstaande code en plak die in uw pagina. In het eerste vakje staat HTML-code, in het tweede vakje UBB-code.


Add to Google

Details

Wind speed:2 bf, 5 kn, 2.6 m/s, 5.8 miles/h, 9.3 km/h
Wind direction:S, 190°
Visibility:Greater than 10000 m, 10 km, 32800 ft, 6.2 miles
Clouds:CAVOC
Temperature:20°C, 68°F
Dew-point:13°C, 55°F
Atmospheric pressure:1010 hPa, 757.6 mmHg, 29.83 inHg, 0.997 atm
Relative humidity:64.1 %
METAR:EDLW 191950Z 19005KT CAVOK 20/13 Q1010

Snelkoppelingen

Actuele weersinformatie van de hele wereld. Voeg locaties toe met het plus (+) symbool. Deze snelkoppelingen kunnen worden toegevoegd aan Google.

Lid van de Technetium groep

website free tracking
StatCounter NetStat W3C Validator

24-10-2020 07:47:05
astro.technetium.be money.technetium.be phote.technetium.be tafeltennistafel.technetium.be www.ligfiets.net